Time;durP1;ratioP1;P1;durP2;ratioP2;P2;SDS_P1;SDS_P2;PMS_P1;PMS_P2;Temp;Humidity;BMP_temperature;BMP_pressure;BME280_temperature;BME280_humidity;BME280_pressure;Samples;Min_cycle;Max_cycle;Signal;HPM_P1;HPM_P2
2022/05/27 00:02:15;;;;;;;13.88;9.63;;;16.20;99.90;;;;;;5115006;27;20203;-81
2022/05/27 00:04:45;;;;;;;13.43;10.20;;;16.30;99.90;;;;;;5109960;28;20206;-80
2022/05/27 00:07:18;;;;;;;17.48;11.10;;;16.50;99.90;;;;;;5109924;27;20287;-79
2022/05/27 00:09:48;;;;;;;12.07;9.27;;;16.50;99.90;;;;;;5105833;28;20194;-80
2022/05/27 00:12:20;;;;;;;12.05;9.93;;;16.60;99.90;;;;;;5108600;28;20244;-80
2022/05/27 00:14:51;;;;;;;11.77;9.40;;;16.70;99.90;;;;;;5110096;27;20654;-80
2022/05/27 00:17:22;;;;;;;12.70;8.98;;;16.80;99.90;;;;;;5110683;28;20187;-80
2022/05/27 00:19:52;;;;;;;12.98;8.88;;;16.80;99.90;;;;;;5111016;28;20191;-79
2022/05/27 00:22:25;;;;;;;12.15;8.27;;;16.80;99.90;;;;;;5103868;27;20569;-80
2022/05/27 00:24:56;;;;;;;11.40;8.55;;;17.00;99.90;;;;;;5104153;27;20238;-80
2022/05/27 00:27:27;;;;;;;18.88;9.77;;;17.00;99.90;;;;;;5117394;27;20191;-80
2022/05/27 00:29:57;;;;;;;11.35;8.77;;;17.00;99.90;;;;;;5105487;28;20288;-80
2022/05/27 00:32:28;;;;;;;11.85;8.90;;;17.10;99.90;;;;;;5104361;27;20252;-83
2022/05/27 00:34:59;;;;;;;11.38;9.00;;;17.10;99.90;;;;;;5108298;28;20654;-81
2022/05/27 00:37:32;;;;;;;11.10;8.25;;;17.20;99.90;;;;;;5099322;28;20198;-81
2022/05/27 00:40:03;;;;;;;12.02;8.30;;;17.30;99.90;;;;;;5113913;27;20195;-81
2022/05/27 00:42:34;;;;;;;10.25;7.90;;;17.30;99.90;;;;;;5108521;28;20646;-81
2022/05/27 00:45:05;;;;;;;11.13;8.02;;;17.40;99.90;;;;;;5109303;28;20338;-84
2022/05/27 00:47:42;;;;;;;12.30;8.50;;;17.50;99.90;;;;;;5114888;28;20190;-83
2022/05/27 00:50:16;;;;;;;10.80;7.30;;;17.60;99.90;;;;;;5114456;27;20194;-83
2022/05/27 00:52:50;;;;;;;10.65;8.05;;;17.60;99.90;;;;;;5130535;27;20198;-83
2022/05/27 00:55:24;;;;;;;12.52;8.07;;;17.70;99.90;;;;;;5116499;27;20687;-83
2022/05/27 00:57:57;;;;;;;8.85;7.15;;;17.80;99.90;;;;;;5110939;28;20621;-83
2022/05/27 01:00:29;;;;;;;8.65;6.32;;;17.80;99.90;;;;;;5118449;28;20191;-82
2022/05/27 01:03:01;;;;;;;10.55;7.40;;;17.90;99.90;;;;;;5106951;28;20206;-83
2022/05/27 01:05:31;;;;;;;9.48;6.97;;;17.90;99.90;;;;;;5107959;28;20218;-82
2022/05/27 01:08:08;;;;;;;9.55;6.93;;;18.00;99.90;;;;;;5100154;28;20218;-83
2022/05/27 01:10:50;;;;;;;9.88;7.20;;;18.20;99.90;;;;;;5107639;28;20206;-83
2022/05/27 01:13:30;;;;;;;10.10;6.97;;;18.30;99.90;;;;;;5110293;28;20187;-81
2022/05/27 01:16:13;;;;;;;12.45;7.13;;;18.40;99.90;;;;;;5102536;28;20595;-83
2022/05/27 01:22:02;;;;;;;11.52;7.15;;;18.70;99.90;;;;;;5116246;28;20204;-83
2022/05/27 01:25:04;;;;;;;10.98;7.45;;;18.70;99.90;;;;;;5122176;27;20633;-83
2022/05/27 01:27:57;;;;;;;8.25;6.20;;;18.80;99.90;;;;;;5098512;28;20186;-81
2022/05/27 01:30:36;;;;;;;6.75;4.85;;;18.70;99.90;;;;;;5110319;28;20183;-81
2022/05/27 01:33:18;;;;;;;7.00;4.43;;;18.70;99.90;;;;;;5108463;28;20197;-82
2022/05/27 01:35:54;;;;;;;5.97;3.95;;;18.80;99.90;;;;;;5112145;28;20198;-81
2022/05/27 01:38:32;;;;;;;4.85;3.72;;;18.80;99.90;;;;;;5102067;28;20230;-81
2022/05/27 01:41:11;;;;;;;7.78;4.25;;;18.90;99.90;;;;;;5108849;28;20210;-81
2022/05/27 01:43:46;;;;;;;7.10;4.30;;;19.00;99.90;;;;;;5107124;28;20203;-82
2022/05/27 01:46:22;;;;;;;10.13;5.25;;;19.00;99.90;;;;;;5109749;28;20692;-80
2022/05/27 01:49:04;;;;;;;7.60;4.93;;;19.10;99.90;;;;;;5115575;28;20532;-81
2022/05/27 01:51:39;;;;;;;8.18;4.80;;;19.20;99.90;;;;;;5108323;28;20198;-81
2022/05/27 01:54:14;;;;;;;7.80;4.70;;;19.20;99.90;;;;;;5107719;27;20251;-81
2022/05/27 01:56:49;;;;;;;7.05;4.50;;;19.30;99.90;;;;;;5105384;28;20236;-82
2022/05/27 01:59:22;;;;;;;6.53;4.30;;;19.40;99.90;;;;;;5123121;27;20193;-81
2022/05/27 02:01:59;;;;;;;4.47;3.72;;;19.50;99.90;;;;;;5104230;27;20194;-81
2022/05/27 02:04:36;;;;;;;6.35;4.22;;;19.50;99.90;;;;;;5114103;27;20186;-81
2022/05/27 02:07:11;;;;;;;7.65;4.50;;;19.60;99.90;;;;;;5112287;27;20237;-81
2022/05/27 02:09:45;;;;;;;5.65;3.83;;;19.60;99.90;;;;;;5110946;27;20205;-81
2022/05/27 02:12:20;;;;;;;7.20;4.40;;;19.60;99.90;;;;;;5116102;27;20186;-81
2022/05/27 02:14:54;;;;;;;8.55;4.10;;;19.80;99.90;;;;;;5132883;27;20194;-81
2022/05/27 02:17:32;;;;;;;7.22;4.80;;;19.80;99.90;;;;;;5126830;27;20198;-80
2022/05/27 02:20:07;;;;;;;6.97;4.28;;;19.90;99.90;;;;;;5113213;27;20199;-81
2022/05/27 02:22:41;;;;;;;7.35;4.10;;;19.90;99.90;;;;;;5119613;27;20194;-80
2022/05/27 02:25:18;;;;;;;5.03;3.97;;;20.00;99.90;;;;;;5114062;27;20190;-81
2022/05/27 02:27:57;;;;;;;7.03;3.83;;;20.00;99.90;;;;;;5117021;27;20255;-81
2022/05/27 02:30:31;;;;;;;8.52;4.07;;;20.10;99.90;;;;;;5112868;27;20338;-81
2022/05/27 02:35:55;;;;;;;5.22;3.55;;;20.30;99.90;;;;;;5108118;28;20573;-82
2022/05/27 02:38:26;;;;;;;5.57;3.55;;;20.30;99.90;;;;;;5119027;27;20202;-81
2022/05/27 02:41:05;;;;;;;5.93;3.92;;;20.40;99.90;;;;;;5103748;28;20247;-80
2022/05/27 02:43:51;;;;;;;7.07;4.18;;;20.50;99.90;;;;;;5121850;27;20236;-80
2022/05/27 02:46:31;;;;;;;5.45;3.72;;;20.60;99.90;;;;;;5115692;27;20313;-80
2022/05/27 02:49:13;;;;;;;7.35;4.00;;;20.60;99.90;;;;;;5103536;28;20195;-81
2022/05/27 02:51:52;;;;;;;9.05;4.15;;;20.60;99.90;;;;;;5112700;27;20194;-80
2022/05/27 02:54:32;;;;;;;5.30;3.75;;;20.60;99.90;;;;;;5112261;27;20213;-81
2022/05/27 02:57:08;;;;;;;4.97;3.35;;;20.70;99.90;;;;;;5110331;28;20583;-80
2022/05/27 02:59:40;;;;;;;5.80;3.25;;;20.70;99.90;;;;;;5110215;27;20213;-79
2022/05/27 03:02:12;;;;;;;4.85;3.45;;;20.80;99.90;;;;;;5109983;27;20198;-81
2022/05/27 03:04:46;;;;;;;5.35;3.00;;;20.90;99.90;;;;;;5128287;27;20221;-81
2022/05/27 03:07:32;;;;;;;6.80;2.80;;;20.90;99.90;;;;;;5112239;27;20627;-79
2022/05/27 03:10:18;;;;;;;8.40;3.30;;;21.00;99.90;;;;;;5107459;27;20199;-80
2022/05/27 03:12:58;;;;;;;6.13;2.92;;;20.90;99.90;;;;;;5112091;27;20296;-80
2022/05/27 03:15:42;;;;;;;6.68;2.78;;;20.90;99.90;;;;;;5112049;27;20201;-80
2022/05/27 03:18:24;;;;;;;5.30;2.50;;;21.00;99.90;;;;;;5111410;27;20248;-79
2022/05/27 03:21:07;;;;;;;3.33;2.83;;;21.10;99.90;;;;;;5111821;27;20190;-79
2022/05/27 03:23:51;;;;;;;5.07;2.50;;;21.10;99.90;;;;;;5111658;27;20198;-78
2022/05/27 03:26:32;;;;;;;4.72;2.90;;;21.10;99.90;;;;;;5110311;27;20309;-79
2022/05/27 03:29:15;;;;;;;6.07;2.90;;;21.10;99.90;;;;;;5110599;27;20211;-78
2022/05/27 03:31:53;;;;;;;6.70;3.15;;;21.10;99.90;;;;;;5105602;28;20214;-78
2022/05/27 03:34:30;;;;;;;4.75;3.10;;;21.20;99.90;;;;;;5111509;27;20697;-77
2022/05/27 03:37:07;;;;;;;6.47;2.70;;;21.20;99.90;;;;;;5111756;28;20296;-77
2022/05/27 03:39:44;;;;;;;5.53;2.63;;;21.20;99.90;;;;;;5097798;27;20214;-79
2022/05/27 03:42:16;;;;;;;3.42;2.13;;;21.20;99.90;;;;;;5110790;27;20677;-81
2022/05/27 03:44:57;;;;;;;3.35;2.10;;;21.20;99.90;;;;;;5115287;27;20217;-81
2022/05/27 03:47:28;;;;;;;4.72;2.20;;;21.20;99.90;;;;;;5131065;27;20217;-82
2022/05/27 03:49:59;;;;;;;5.00;1.70;;;21.20;99.90;;;;;;5116069;27;20235;-82
2022/05/27 03:52:38;;;;;;;2.92;1.33;;;21.20;99.90;;;;;;5107670;27;20220;-80
2022/05/27 03:55:11;;;;;;;5.03;1.67;;;21.20;99.90;;;;;;5121258;27;20196;-81
2022/05/27 03:57:41;;;;;;;4.65;1.25;;;21.20;99.90;;;;;;5111361;27;20195;-81
2022/05/27 04:00:14;;;;;;;2.70;1.10;;;21.10;99.90;;;;;;5111600;27;20190;-80
2022/05/27 04:02:46;;;;;;;2.88;0.85;;;21.10;99.90;;;;;;5110963;28;20190;-81
2022/05/27 04:05:20;;;;;;;2.53;0.98;;;21.10;99.90;;;;;;5110939;28;20190;-82
2022/05/27 04:07:54;;;;;;;2.50;1.00;;;21.10;99.90;;;;;;5128167;27;20228;-82
2022/05/27 04:10:24;;;;;;;1.63;0.90;;;21.10;99.90;;;;;;5106782;27;20195;-81
2022/05/27 04:12:55;;;;;;;3.78;0.90;;;21.00;99.90;;;;;;5108231;27;20198;-82
2022/05/27 04:15:26;;;;;;;5.25;1.10;;;21.00;99.90;;;;;;5127840;27;20439;-82
2022/05/27 04:17:56;;;;;;;2.38;0.82;;;21.00;99.90;;;;;;5118623;27;20190;-82
2022/05/27 04:20:28;;;;;;;2.38;0.90;;;21.00;99.90;;;;;;5115092;27;20561;-82
2022/05/27 04:23:01;;;;;;;1.98;1.00;;;21.00;99.90;;;;;;5130800;27;20274;-80
2022/05/27 04:25:32;;;;;;;1.55;0.95;;;21.00;99.90;;;;;;5101084;27;20190;-81
2022/05/27 04:28:03;;;;;;;1.80;0.88;;;21.00;99.90;;;;;;5110734;28;20218;-82
2022/05/27 04:30:34;;;;;;;2.17;0.88;;;20.90;99.90;;;;;;5110403;27;20566;-82
2022/05/27 04:33:04;;;;;;;1.88;0.77;;;21.00;99.90;;;;;;5127219;27;20197;-81
2022/05/27 04:35:35;;;;;;;2.63;0.98;;;21.00;99.90;;;;;;5111090;28;20175;-83
2022/05/27 04:38:10;;;;;;;3.75;1.25;;;21.00;99.90;;;;;;5116267;27;20244;-81
2022/05/27 04:40:40;;;;;;;5.82;1.10;;;21.00;99.90;;;;;;5107693;27;20692;-82
2022/05/27 04:43:11;;;;;;;5.38;1.10;;;20.90;99.90;;;;;;5119620;27;20438;-82
2022/05/27 04:45:42;;;;;;;2.80;1.10;;;20.90;99.90;;;;;;5115502;27;20201;-81
2022/05/27 04:48:13;;;;;;;3.35;1.00;;;20.90;99.90;;;;;;5114294;27;20803;-83
2022/05/27 04:50:45;;;;;;;4.05;0.85;;;20.90;99.90;;;;;;5115918;27;20186;-83
2022/05/27 04:53:19;;;;;;;3.70;1.00;;;20.90;99.90;;;;;;5110596;28;20198;-82
2022/05/27 04:55:50;;;;;;;3.50;1.10;;;20.80;99.90;;;;;;5101785;28;20247;-83
2022/05/27 04:58:20;;;;;;;2.63;0.98;;;20.80;99.90;;;;;;5127468;28;20190;-82
2022/05/27 05:00:51;;;;;;;3.47;1.20;;;20.80;99.90;;;;;;5126579;27;20187;-84
2022/05/27 05:03:22;;;;;;;3.25;0.90;;;20.90;99.90;;;;;;5126835;28;20189;-83
2022/05/27 05:05:53;;;;;;;2.10;0.80;;;20.90;99.90;;;;;;5100531;28;20243;-84
2022/05/27 05:08:33;;;;;;;3.47;0.93;;;20.90;99.90;;;;;;5116913;28;20222;-81
2022/05/27 05:11:05;;;;;;;6.18;1.20;;;20.90;99.90;;;;;;5101085;28;20691;-83
2022/05/27 05:13:36;;;;;;;2.05;0.80;;;20.90;99.90;;;;;;5120952;28;20197;-85
2022/05/27 05:16:07;;;;;;;2.95;0.88;;;20.80;99.90;;;;;;5121010;28;20194;-84
2022/05/27 05:18:38;;;;;;;2.25;0.80;;;20.90;99.90;;;;;;5122659;27;20529;-84
2022/05/27 05:21:09;;;;;;;2.33;0.90;;;20.90;99.90;;;;;;5102187;28;20187;-84
2022/05/27 05:23:41;;;;;;;2.15;0.80;;;20.80;99.90;;;;;;5104567;28;20187;-82
2022/05/27 05:26:12;;;;;;;1.80;0.80;;;20.80;99.90;;;;;;5114151;28;20194;-83
2022/05/27 05:28:43;;;;;;;2.63;0.80;;;20.70;99.90;;;;;;5131164;27;20190;-82
2022/05/27 05:31:16;;;;;;;4.63;0.80;;;20.70;99.90;;;;;;5128947;27;20190;-82
2022/05/27 05:33:47;;;;;;;3.60;0.80;;;20.70;99.90;;;;;;5113148;28;20646;-83
2022/05/27 05:36:17;;;;;;;2.15;0.57;;;20.70;99.90;;;;;;5123497;27;20606;-83
2022/05/27 05:38:50;;;;;;;2.47;0.80;;;20.60;99.90;;;;;;5125473;27;20198;-83
2022/05/27 05:41:28;;;;;;;3.45;0.80;;;20.60;99.90;;;;;;5119706;27;20194;-84
2022/05/27 05:43:59;;;;;;;1.83;0.90;;;20.60;99.90;;;;;;5134989;27;20640;-86
2022/05/27 05:46:30;;;;;;;1.83;0.75;;;20.60;99.90;;;;;;5131446;27;20318;-84
2022/05/27 05:49:01;;;;;;;1.42;0.70;;;20.60;99.90;;;;;;5114419;28;20199;-86
2022/05/27 05:51:31;;;;;;;3.13;0.95;;;20.60;99.90;;;;;;5106088;27;20270;-83
2022/05/27 05:54:04;;;;;;;2.97;0.73;;;20.50;99.90;;;;;;5108830;27;20283;-84
2022/05/27 05:56:35;;;;;;;2.63;0.80;;;20.50;99.90;;;;;;5095407;27;20244;-83
2022/05/27 05:59:06;;;;;;;1.20;0.57;;;20.50;99.90;;;;;;5122365;27;20235;-84
2022/05/27 06:01:36;;;;;;;3.47;0.80;;;20.50;99.90;;;;;;5120082;27;20356;-84
2022/05/27 06:04:08;;;;;;;2.70;0.80;;;20.40;99.90;;;;;;5119242;27;20199;-83
2022/05/27 06:06:40;;;;;;;1.40;0.70;;;20.40;99.90;;;;;;5119516;27;20597;-84
2022/05/27 06:09:13;;;;;;;2.55;0.60;;;20.40;99.90;;;;;;5118626;27;20840;-84
2022/05/27 06:11:44;;;;;;;3.17;0.82;;;20.40;99.90;;;;;;5101113;27;20191;-84
2022/05/27 06:14:15;;;;;;;3.03;0.75;;;20.50;99.90;;;;;;5120356;27;20190;-84
2022/05/27 06:16:46;;;;;;;1.98;0.65;;;20.50;99.90;;;;;;5122122;27;20197;-85
2022/05/27 06:19:16;;;;;;;2.78;0.70;;;20.50;99.90;;;;;;5100833;27;20629;-84
2022/05/27 06:21:47;;;;;;;2.78;0.70;;;20.50;99.90;;;;;;5134078;27;20186;-82
2022/05/27 06:24:19;;;;;;;1.90;0.80;;;20.50;99.90;;;;;;5108599;27;20213;-84
2022/05/27 06:26:50;;;;;;;3.67;0.70;;;20.50;99.90;;;;;;5111840;27;20701;-85
2022/05/27 06:34:56;;;;;;;3.17;0.70;;;20.40;99.90;;;;;;5102715;27;20202;-83
2022/05/27 06:37:27;;;;;;;2.70;0.95;;;20.30;99.90;;;;;;5115427;27;20194;-84
2022/05/27 06:40:00;;;;;;;1.38;0.57;;;20.30;99.90;;;;;;5105934;28;20218;-84
2022/05/27 06:42:32;;;;;;;2.28;0.80;;;20.20;99.90;;;;;;5117092;27;20236;-84
2022/05/27 06:45:03;;;;;;;1.88;0.70;;;20.10;99.90;;;;;;5113173;28;20186;-84
2022/05/27 06:47:34;;;;;;;3.83;0.90;;;20.10;99.90;;;;;;5114577;27;20632;-84
2022/05/27 06:50:06;;;;;;;1.33;0.70;;;20.00;99.90;;;;;;5121372;27;20199;-86
2022/05/27 06:52:36;;;;;;;2.10;0.80;;;20.00;99.90;;;;;;5113953;27;20191;-84
2022/05/27 06:55:10;;;;;;;4.22;0.60;;;19.90;99.90;;;;;;5106802;27;20191;-85
2022/05/27 06:57:41;;;;;;;2.25;0.80;;;19.80;99.90;;;;;;5118579;27;20282;-83
2022/05/27 07:00:14;;;;;;;2.90;0.73;;;19.70;99.90;;;;;;5117716;27;20199;-83
2022/05/27 07:02:45;;;;;;;3.03;0.73;;;19.70;99.90;;;;;;5112434;28;20625;-84
2022/05/27 07:05:15;;;;;;;1.88;0.65;;;19.60;99.90;;;;;;5124104;27;20190;-84
2022/05/27 07:07:46;;;;;;;2.17;0.50;;;19.50;99.90;;;;;;5112706;27;20768;-82
2022/05/27 07:10:18;;;;;;;2.20;0.73;;;19.50;99.90;;;;;;5122374;27;20637;-82
2022/05/27 07:12:49;;;;;;;1.83;0.60;;;19.40;99.90;;;;;;5100601;27;20590;-83
2022/05/27 07:15:21;;;;;;;1.85;1.00;;;19.40;99.90;;;;;;5112314;28;20199;-84
2022/05/27 07:17:51;;;;;;;3.38;0.80;;;19.30;99.90;;;;;;5113679;27;20206;-81
2022/05/27 07:20:22;;;;;;;2.38;0.65;;;19.30;99.90;;;;;;5101224;28;20804;-82
2022/05/27 07:22:53;;;;;;;1.77;0.80;;;19.30;99.90;;;;;;5107148;27;20210;-83
2022/05/27 07:25:25;;;;;;;2.17;0.80;;;19.20;99.90;;;;;;5107064;27;20244;-86
2022/05/27 07:27:56;;;;;;;2.70;0.80;;;19.20;99.90;;;;;;5111274;28;20203;-84
2022/05/27 07:30:27;;;;;;;2.38;0.90;;;19.20;99.90;;;;;;5109232;27;20196;-83
2022/05/27 07:32:57;;;;;;;2.35;0.73;;;19.10;99.90;;;;;;5114969;27;20240;-84
2022/05/27 07:35:28;;;;;;;2.47;0.80;;;19.10;99.90;;;;;;5112593;27;20193;-84
2022/05/27 07:37:59;;;;;;;2.90;0.85;;;19.10;99.90;;;;;;5094603;27;20188;-84
2022/05/27 07:40:31;;;;;;;1.35;0.68;;;19.10;99.90;;;;;;5112805;27;20199;-83
2022/05/27 07:43:02;;;;;;;1.63;0.80;;;19.10;99.90;;;;;;5108072;27;20195;-82
2022/05/27 07:45:36;;;;;;;3.17;0.85;;;19.10;99.90;;;;;;5119895;27;20195;-83
2022/05/27 07:48:07;;;;;;;2.38;0.80;;;19.00;99.90;;;;;;5100283;27;20207;-82
2022/05/27 07:50:39;;;;;;;3.58;1.02;;;19.00;99.90;;;;;;5108822;28;20688;-84
2022/05/27 07:53:09;;;;;;;5.07;1.00;;;19.00;99.90;;;;;;5110620;27;20178;-83
2022/05/27 07:55:42;;;;;;;4.10;0.90;;;19.00;99.90;;;;;;5099909;28;20191;-82
2022/05/27 07:58:13;;;;;;;3.13;1.00;;;18.90;99.90;;;;;;5105564;27;20195;-83
2022/05/27 08:00:45;;;;;;;2.75;0.85;;;18.90;99.90;;;;;;5108989;27;20250;-82
2022/05/27 08:03:17;;;;;;;1.92;0.70;;;18.90;99.90;;;;;;5105775;28;20549;-80
2022/05/27 08:05:48;;;;;;;4.80;0.90;;;18.90;99.90;;;;;;5108870;28;20202;-82
2022/05/27 08:08:20;;;;;;;3.22;0.93;;;18.90;99.90;;;;;;5102786;28;20704;-82
2022/05/27 08:10:54;;;;;;;3.53;0.98;;;18.80;99.90;;;;;;5104257;27;20193;-82
2022/05/27 08:13:26;;;;;;;4.18;1.20;;;18.80;99.90;;;;;;5112641;27;20246;-83
2022/05/27 08:15:57;;;;;;;3.17;1.00;;;18.80;99.90;;;;;;5119973;27;20262;-84
2022/05/27 08:18:29;;;;;;;4.30;1.10;;;18.80;99.90;;;;;;5105328;27;20191;-80
2022/05/27 08:21:03;;;;;;;1.95;1.10;;;18.80;99.90;;;;;;5105905;27;20210;-81
2022/05/27 08:23:35;;;;;;;3.13;1.25;;;18.70;99.90;;;;;;5115966;27;20202;-85
2022/05/27 08:26:09;;;;;;;4.18;1.60;;;18.70;99.90;;;;;;5106822;28;20198;-84
2022/05/27 08:28:40;;;;;;;4.90;1.42;;;18.70;99.90;;;;;;5110507;27;20213;-84
2022/05/27 08:31:13;;;;;;;5.45;1.48;;;18.70;99.90;;;;;;5120922;27;20190;-83
2022/05/27 08:39:15;;;;;;;8.07;4.32;;;18.60;99.90;;;;;;5083879;28;20199;-80
2022/05/27 08:41:58;;;;;;;5.47;3.97;;;18.60;99.90;;;;;;5109695;28;20195;-79
2022/05/27 08:44:40;;;;;;;6.57;3.50;;;18.60;99.90;;;;;;5110970;28;20595;-79
2022/05/27 08:47:18;;;;;;;5.00;2.33;;;18.60;99.90;;;;;;5114606;27;20194;-80
2022/05/27 08:49:52;;;;;;;5.03;1.90;;;18.60;99.90;;;;;;5110618;27;20199;-80
2022/05/27 08:52:27;;;;;;;3.63;2.00;;;18.60;99.90;;;;;;5099634;28;20194;-80
2022/05/27 08:55:01;;;;;;;4.47;2.78;;;18.60;99.90;;;;;;5106034;28;20224;-80
2022/05/27 09:00:32;;;;;;;6.03;3.20;;;18.50;99.90;;;;;;5102196;28;20321;-81
2022/05/27 09:03:07;;;;;;;6.03;2.78;;;18.50;99.90;;;;;;5107157;28;20186;-81
2022/05/27 09:05:43;;;;;;;5.20;2.30;;;18.40;99.90;;;;;;5111575;27;20260;-80
2022/05/27 09:08:22;;;;;;;5.22;2.03;;;18.50;99.90;;;;;;5112424;27;20237;-80
2022/05/27 09:11:12;;;;;;;3.00;1.67;;;18.40;99.90;;;;;;5110014;27;20198;-80
2022/05/27 09:13:56;;;;;;;6.15;2.17;;;18.50;99.90;;;;;;5106520;28;20274;-80
2022/05/27 09:16:34;;;;;;;5.55;2.22;;;18.40;99.90;;;;;;5107780;27;20289;-79
2022/05/27 09:19:10;;;;;;;5.25;2.30;;;18.40;99.90;;;;;;5102606;27;20278;-78
2022/05/27 09:21:47;;;;;;;6.78;3.40;;;18.40;99.90;;;;;;5111063;27;20218;-80
2022/05/27 09:24:35;;;;;;;10.70;6.78;;;18.40;99.90;;;;;;5106888;27;20237;-80
2022/05/27 09:27:11;;;;;;;9.30;7.32;;;18.40;99.90;;;;;;5109070;27;20603;-80
2022/05/27 09:30:01;;;;;;;11.52;8.35;;;18.40;99.90;;;;;;5109562;27;20222;-85
2022/05/27 09:32:39;;;;;;;9.45;7.78;;;18.30;99.90;;;;;;5106576;27;20708;-80
2022/05/27 09:35:13;;;;;;;9.32;7.10;;;18.30;99.90;;;;;;5109866;27;20182;-80
2022/05/27 09:37:48;;;;;;;10.43;6.28;;;18.30;99.90;;;;;;5109684;27;20665;-80
2022/05/27 09:40:22;;;;;;;10.63;5.55;;;18.30;99.90;;;;;;5105951;27;20241;-80
2022/05/27 09:43:03;;;;;;;7.60;5.07;;;18.20;99.90;;;;;;5108641;27;20574;-81
2022/05/27 09:45:36;;;;;;;6.50;4.90;;;18.20;99.90;;;;;;5109038;27;20202;-81
2022/05/27 09:48:07;;;;;;;7.28;4.30;;;18.20;99.90;;;;;;5114227;27;20218;-80
2022/05/27 09:50:42;;;;;;;5.43;3.53;;;18.20;99.90;;;;;;5105496;27;20256;-80
2022/05/27 09:53:16;;;;;;;5.57;3.45;;;18.20;99.90;;;;;;5103800;27;20197;-80
2022/05/27 09:55:54;;;;;;;4.85;2.78;;;18.20;99.90;;;;;;5118901;27;20730;-78
2022/05/27 09:58:30;;;;;;;5.60;3.10;;;18.20;99.90;;;;;;5111474;27;20186;-77
2022/05/27 10:01:03;;;;;;;7.15;3.42;;;18.10;99.90;;;;;;5106858;27;20198;-79
2022/05/27 10:03:38;;;;;;;5.10;2.65;;;18.10;99.90;;;;;;5110711;27;20277;-77
2022/05/27 10:06:11;;;;;;;5.20;2.70;;;18.10;99.90;;;;;;5107444;27;20618;-76
2022/05/27 10:08:45;;;;;;;5.45;2.40;;;18.10;99.90;;;;;;5104568;27;20766;-77
2022/05/27 10:11:22;;;;;;;3.50;2.00;;;18.10;99.90;;;;;;5105483;27;20717;-77
2022/05/27 10:14:13;;;;;;;4.32;2.10;;;18.10;99.90;;;;;;5106839;27;20248;-78
2022/05/27 10:17:00;;;;;;;3.85;1.90;;;18.10;99.90;;;;;;5109299;27;20182;-78
2022/05/27 10:19:31;;;;;;;4.35;2.33;;;18.10;99.90;;;;;;5104765;27;20199;-78
2022/05/27 10:22:03;;;;;;;5.63;2.70;;;18.00;99.90;;;;;;5106879;27;20604;-78
2022/05/27 10:24:38;;;;;;;3.92;2.33;;;18.00;99.90;;;;;;5130714;27;20270;-80
2022/05/27 10:27:12;;;;;;;5.00;2.53;;;18.10;99.90;;;;;;5107109;27;20191;-77
2022/05/27 10:30:00;;;;;;;4.97;2.53;;;18.10;99.90;;;;;;5116017;27;20221;-77
2022/05/27 10:32:37;;;;;;;5.20;2.50;;;18.00;99.90;;;;;;5112908;27;20190;-76
2022/05/27 10:35:10;;;;;;;4.63;2.17;;;18.00;99.90;;;;;;5112960;27;20213;-76
2022/05/27 10:38:07;;;;;;;6.50;2.67;;;18.00;99.90;;;;;;5111619;27;20211;-76
2022/05/27 10:40:41;;;;;;;6.70;3.63;;;18.00;99.90;;;;;;5111227;27;20187;-77
2022/05/27 10:43:29;;;;;;;6.88;4.43;;;18.00;99.90;;;;;;5105070;27;20206;-77
2022/05/27 10:46:05;;;;;;;8.52;4.70;;;18.00;99.90;;;;;;5112370;27;20205;-76
2022/05/27 10:48:51;;;;;;;6.72;4.60;;;18.00;99.90;;;;;;5107977;28;20214;-76
2022/05/27 10:51:35;;;;;;;9.45;5.88;;;18.00;99.90;;;;;;5112758;27;20719;-77
2022/05/27 10:54:35;;;;;;;7.55;6.57;;;18.00;99.90;;;;;;5109815;27;20203;-78
2022/05/27 11:03:30;;;;;;;5.55;3.63;;;17.90;99.90;;;;;;5107895;27;20219;-77
2022/05/27 11:06:15;;;;;;;5.53;3.30;;;17.80;99.90;;;;;;5103633;27;20198;-77
2022/05/27 11:08:55;;;;;;;4.38;3.25;;;17.80;99.90;;;;;;5118731;27;20217;-77
2022/05/27 11:11:37;;;;;;;6.20;2.67;;;17.80;99.90;;;;;;5108983;27;20243;-77
2022/05/27 11:17:12;;;;;;;2.70;1.80;;;17.90;99.90;;;;;;5105357;28;20510;-76
2022/05/27 11:20:22;;;;;;;3.65;1.85;;;17.80;99.90;;;;;;5113534;27;20654;-76
2022/05/27 11:23:03;;;;;;;3.53;2.38;;;17.90;99.90;;;;;;5104019;27;20186;-77
2022/05/27 11:25:52;;;;;;;3.58;2.20;;;17.90;99.90;;;;;;5110237;28;20274;-77
2022/05/27 11:28:42;;;;;;;3.20;2.03;;;17.90;99.90;;;;;;5106737;27;20248;-76
2022/05/27 11:31:25;;;;;;;4.07;2.08;;;17.80;99.90;;;;;;5103397;28;20277;-77
2022/05/27 11:34:05;;;;;;;3.65;1.70;;;17.80;99.90;;;;;;5110150;28;20199;-76
2022/05/27 11:36:52;;;;;;;2.67;1.55;;;17.80;99.90;;;;;;5112413;27;20194;-76
2022/05/27 11:39:47;;;;;;;2.95;1.55;;;17.80;99.90;;;;;;5111051;27;20193;-77
2022/05/27 11:42:37;;;;;;;4.07;1.50;;;17.70;99.90;;;;;;5111141;28;20195;-76
2022/05/27 11:45:15;;;;;;;5.15;2.67;;;17.70;99.90;;;;;;5096790;28;20237;-78
2022/05/27 11:48:06;;;;;;;3.85;2.28;;;17.70;99.90;;;;;;5112017;27;20190;-79
2022/05/27 11:51:19;;;;;;;4.25;2.20;;;17.70;99.90;;;;;;5112151;27;20195;-78
2022/05/27 11:54:11;;;;;;;2.58;1.85;;;17.70;99.90;;;;;;5111598;27;20259;-78
2022/05/27 11:56:54;;;;;;;3.65;2.03;;;17.70;99.90;;;;;;5102085;27;20214;-79
2022/05/27 11:59:31;;;;;;;3.65;1.88;;;17.70;99.90;;;;;;5131273;27;20238;-81
2022/05/27 12:02:07;;;;;;;3.67;1.70;;;17.70;99.90;;;;;;5121133;27;20680;-78
2022/05/27 12:04:43;;;;;;;3.63;1.73;;;17.70;99.90;;;;;;5131358;27;20285;-77
2022/05/27 12:07:20;;;;;;;3.88;2.22;;;17.70;99.90;;;;;;5131403;27;20305;-78
2022/05/27 12:09:55;;;;;;;4.07;2.10;;;17.70;99.90;;;;;;5124817;27;20215;-77
2022/05/27 12:12:32;;;;;;;4.18;2.13;;;17.70;99.90;;;;;;5107835;27;20190;-78
2022/05/27 12:15:09;;;;;;;4.55;2.05;;;17.70;99.90;;;;;;5099699;28;20242;-79
2022/05/27 12:17:42;;;;;;;4.82;2.00;;;17.70;99.90;;;;;;5109559;27;20191;-78
2022/05/27 12:20:18;;;;;;;3.50;1.50;;;17.70;99.90;;;;;;5116381;27;20871;-79
2022/05/27 12:22:52;;;;;;;4.68;2.10;;;17.60;99.90;;;;;;5130940;27;20194;-80
2022/05/27 12:25:27;;;;;;;2.33;1.52;;;17.60;99.90;;;;;;5123613;27;20194;-80
2022/05/27 12:28:02;;;;;;;5.22;1.80;;;17.60;99.90;;;;;;5110620;27;20278;-78
2022/05/27 12:30:35;;;;;;;3.88;2.00;;;17.60;99.90;;;;;;5114111;27;20214;-79
2022/05/27 12:33:06;;;;;;;3.70;1.80;;;17.60;99.90;;;;;;5122136;27;20198;-81
2022/05/27 12:35:59;;;;;;;3.47;1.80;;;17.60;99.90;;;;;;5125931;27;20202;-81
2022/05/27 12:38:31;;;;;;;4.97;2.00;;;17.50;99.90;;;;;;5110318;28;20222;-81
2022/05/27 12:41:05;;;;;;;4.45;1.95;;;17.50;99.90;;;;;;5106619;28;20661;-80
2022/05/27 12:43:39;;;;;;;3.20;1.90;;;17.50;99.90;;;;;;5106900;28;20235;-80
2022/05/27 12:46:43;;;;;;;4.47;2.13;;;17.50;99.90;;;;;;5118300;28;20194;-78
2022/05/27 12:49:36;;;;;;;6.25;2.15;;;17.40;99.90;;;;;;5047676;28;20311;-79
2022/05/27 12:52:08;;;;;;;4.45;2.00;;;17.40;99.90;;;;;;5107166;28;20222;-78
2022/05/27 12:55:09;;;;;;;3.22;2.00;;;17.40;99.90;;;;;;5111282;28;20717;-79
2022/05/27 13:01:00;;;;;;;4.35;1.95;;;17.30;99.90;;;;;;5108808;28;20248;-79
2022/05/27 13:03:57;;;;;;;4.00;2.08;;;17.20;99.90;;;;;;5110719;28;20239;-79
2022/05/27 13:07:04;;;;;;;3.58;1.90;;;17.20;99.90;;;;;;5090405;28;20214;-78
2022/05/27 13:09:52;;;;;;;5.85;2.20;;;17.10;99.90;;;;;;5109449;28;20349;-78
2022/05/27 13:12:56;;;;;;;4.32;1.70;;;17.10;99.90;;;;;;5102421;28;20247;-78
2022/05/27 13:15:33;;;;;;;3.28;1.90;;;17.10;99.90;;;;;;5104639;28;20221;-79
2022/05/27 13:18:21;;;;;;;6.60;2.28;;;17.10;99.90;;;;;;5110693;27;20652;-79
2022/05/27 13:20:58;;;;;;;3.97;1.95;;;17.10;99.90;;;;;;5110732;28;20614;-78
2022/05/27 13:23:31;;;;;;;4.28;2.00;;;17.10;99.90;;;;;;5110453;28;20599;-80
2022/05/27 13:26:08;;;;;;;4.05;2.00;;;17.10;99.90;;;;;;5108134;28;20203;-78
2022/05/27 13:28:41;;;;;;;5.70;2.50;;;17.20;99.90;;;;;;5107065;28;20666;-79
2022/05/27 13:31:15;;;;;;;7.13;2.67;;;17.20;99.90;;;;;;5108804;28;20190;-78
2022/05/27 13:33:50;;;;;;;6.55;2.70;;;17.10;99.90;;;;;;5106852;28;20194;-78
2022/05/27 13:36:24;;;;;;;4.97;2.33;;;17.20;99.90;;;;;;5108504;28;20194;-78
2022/05/27 13:39:00;;;;;;;6.70;2.45;;;17.10;99.90;;;;;;5110199;28;20724;-78
2022/05/27 13:41:38;;;;;;;4.18;2.80;;;17.10;99.90;;;;;;5108499;28;20255;-78
2022/05/27 13:44:11;;;;;;;4.82;2.22;;;17.10;99.90;;;;;;5113026;28;20194;-77
2022/05/27 13:46:45;;;;;;;4.63;2.55;;;17.10;99.90;;;;;;5104475;28;20218;-78
2022/05/27 13:49:28;;;;;;;5.10;2.40;;;17.10;99.90;;;;;;5109994;28;20620;-78
2022/05/27 13:52:00;;;;;;;4.20;2.17;;;17.10;99.90;;;;;;5112321;27;20789;-78
2022/05/27 13:54:38;;;;;;;3.97;2.38;;;17.10;99.90;;;;;;5111882;27;20237;-78
2022/05/27 13:57:12;;;;;;;5.60;2.50;;;17.00;99.90;;;;;;5111839;27;20186;-78
2022/05/27 13:59:47;;;;;;;3.78;2.30;;;17.00;99.90;;;;;;5106521;27;20198;-79
2022/05/27 14:02:23;;;;;;;4.38;2.47;;;17.00;99.90;;;;;;5113741;28;20206;-79
2022/05/27 14:04:58;;;;;;;4.18;2.20;;;17.00;99.90;;;;;;5116970;27;20194;-79